sensor_id;sensor_type;location;lat;lon;timestamp;P1;durP1;ratioP1;P2;durP2;ratioP2
74293;SDS011;64044;59.904;10.738;2023-11-19T00:00:31;12.07;;;6.30;;
74293;SDS011;64044;59.904;10.738;2023-11-19T00:02:56;12.02;;;6.60;;
74293;SDS011;64044;59.904;10.738;2023-11-19T00:05:22;13.25;;;5.88;;
74293;SDS011;64044;59.904;10.738;2023-11-19T00:07:48;9.52;;;6.28;;
74293;SDS011;64044;59.904;10.738;2023-11-19T00:10:15;12.07;;;6.35;;
74293;SDS011;64044;59.904;10.738;2023-11-19T00:12:45;9.73;;;5.60;;
74293;SDS011;64044;59.904;10.738;2023-11-19T00:15:12;9.77;;;6.43;;
74293;SDS011;64044;59.904;10.738;2023-11-19T00:17:38;13.77;;;6.53;;
74293;SDS011;64044;59.904;10.738;2023-11-19T00:20:11;11.75;;;6.53;;
74293;SDS011;64044;59.904;10.738;2023-11-19T00:22:38;11.45;;;6.80;;
74293;SDS011;64044;59.904;10.738;2023-11-19T00:25:04;12.25;;;6.18;;
74293;SDS011;64044;59.904;10.738;2023-11-19T00:27:31;12.52;;;6.28;;
74293;SDS011;64044;59.904;10.738;2023-11-19T00:29:56;10.95;;;5.80;;
74293;SDS011;64044;59.904;10.738;2023-11-19T00:32:22;12.85;;;6.75;;
74293;SDS011;64044;59.904;10.738;2023-11-19T00:34:48;11.48;;;6.22;;
74293;SDS011;64044;59.904;10.738;2023-11-19T00:37:14;11.05;;;6.25;;
74293;SDS011;64044;59.904;10.738;2023-11-19T00:39:40;10.45;;;5.70;;
74293;SDS011;64044;59.904;10.738;2023-11-19T00:42:06;9.38;;;5.75;;
74293;SDS011;64044;59.904;10.738;2023-11-19T00:44:32;8.38;;;5.70;;
74293;SDS011;64044;59.904;10.738;2023-11-19T00:46:58;10.45;;;6.20;;
74293;SDS011;64044;59.904;10.738;2023-11-19T00:49:25;9.30;;;5.55;;
74293;SDS011;64044;59.904;10.738;2023-11-19T00:51:50;9.95;;;5.93;;
74293;SDS011;64044;59.904;10.738;2023-11-19T00:54:16;11.70;;;6.63;;
74293;SDS011;64044;59.904;10.738;2023-11-19T00:56:42;12.50;;;6.32;;
74293;SDS011;64044;59.904;10.738;2023-11-19T00:59:08;9.32;;;5.45;;
74293;SDS011;64044;59.904;10.738;2023-11-19T01:01:34;10.82;;;5.70;;
74293;SDS011;64044;59.904;10.738;2023-11-19T01:03:59;10.73;;;6.40;;
74293;SDS011;64044;59.904;10.738;2023-11-19T01:06:31;8.75;;;5.88;;
74293;SDS011;64044;59.904;10.738;2023-11-19T01:08:57;10.63;;;5.97;;
74293;SDS011;64044;59.904;10.738;2023-11-19T01:11:24;9.00;;;6.38;;
74293;SDS011;64044;59.904;10.738;2023-11-19T01:13:50;12.95;;;6.32;;
74293;SDS011;64044;59.904;10.738;2023-11-19T01:16:16;10.93;;;6.00;;
74293;SDS011;64044;59.904;10.738;2023-11-19T01:18:42;11.63;;;5.95;;
74293;SDS011;64044;59.904;10.738;2023-11-19T01:21:08;9.63;;;6.35;;
74293;SDS011;64044;59.904;10.738;2023-11-19T01:23:34;10.43;;;6.47;;
74293;SDS011;64044;59.904;10.738;2023-11-19T01:26:00;11.65;;;6.32;;
74293;SDS011;64044;59.904;10.738;2023-11-19T01:28:26;9.80;;;6.03;;
74293;SDS011;64044;59.904;10.738;2023-11-19T01:30:52;10.00;;;5.93;;
74293;SDS011;64044;59.904;10.738;2023-11-19T01:33:18;11.55;;;6.30;;
74293;SDS011;64044;59.904;10.738;2023-11-19T01:35:43;11.60;;;6.20;;
74293;SDS011;64044;59.904;10.738;2023-11-19T01:38:09;11.23;;;6.20;;
74293;SDS011;64044;59.904;10.738;2023-11-19T01:40:35;9.30;;;6.38;;
74293;SDS011;64044;59.904;10.738;2023-11-19T01:43:02;10.18;;;5.75;;
74293;SDS011;64044;59.904;10.738;2023-11-19T01:45:29;11.20;;;6.18;;
74293;SDS011;64044;59.904;10.738;2023-11-19T01:47:56;12.25;;;6.68;;
74293;SDS011;64044;59.904;10.738;2023-11-19T01:50:23;10.98;;;5.90;;
74293;SDS011;64044;59.904;10.738;2023-11-19T01:52:53;10.82;;;5.03;;
74293;SDS011;64044;59.904;10.738;2023-11-19T01:55:22;9.40;;;5.97;;
74293;SDS011;64044;59.904;10.738;2023-11-19T01:57:50;10.90;;;5.47;;
74293;SDS011;64044;59.904;10.738;2023-11-19T02:00:18;8.75;;;5.60;;
74293;SDS011;64044;59.904;10.738;2023-11-19T02:02:45;10.98;;;5.38;;
74293;SDS011;64044;59.904;10.738;2023-11-19T02:05:13;11.07;;;5.47;;
74293;SDS011;64044;59.904;10.738;2023-11-19T02:07:39;10.02;;;5.93;;
74293;SDS011;64044;59.904;10.738;2023-11-19T02:10:05;7.28;;;4.85;;
74293;SDS011;64044;59.904;10.738;2023-11-19T02:12:37;9.40;;;4.88;;
74293;SDS011;64044;59.904;10.738;2023-11-19T02:15:08;6.88;;;4.63;;
74293;SDS011;64044;59.904;10.738;2023-11-19T02:17:34;10.02;;;5.32;;
74293;SDS011;64044;59.904;10.738;2023-11-19T02:20:02;7.10;;;4.40;;
74293;SDS011;64044;59.904;10.738;2023-11-19T02:22:31;8.38;;;5.10;;
74293;SDS011;64044;59.904;10.738;2023-11-19T02:25:05;9.88;;;5.15;;
74293;SDS011;64044;59.904;10.738;2023-11-19T02:30:09;9.93;;;5.43;;
74293;SDS011;64044;59.904;10.738;2023-11-19T02:32:36;8.13;;;5.47;;
74293;SDS011;64044;59.904;10.738;2023-11-19T02:35:04;8.77;;;5.38;;
74293;SDS011;64044;59.904;10.738;2023-11-19T02:37:30;7.40;;;5.32;;
74293;SDS011;64044;59.904;10.738;2023-11-19T02:39:55;7.13;;;4.85;;
74293;SDS011;64044;59.904;10.738;2023-11-19T02:42:21;8.18;;;5.63;;
74293;SDS011;64044;59.904;10.738;2023-11-19T02:44:47;7.93;;;5.05;;
74293;SDS011;64044;59.904;10.738;2023-11-19T02:47:13;5.88;;;4.18;;
74293;SDS011;64044;59.904;10.738;2023-11-19T02:49:39;6.78;;;4.68;;
74293;SDS011;64044;59.904;10.738;2023-11-19T02:52:05;10.57;;;5.20;;
74293;SDS011;64044;59.904;10.738;2023-11-19T02:54:31;6.40;;;4.18;;
74293;SDS011;64044;59.904;10.738;2023-11-19T02:57:00;8.13;;;4.80;;
74293;SDS011;64044;59.904;10.738;2023-11-19T02:59:28;6.28;;;3.63;;
74293;SDS011;64044;59.904;10.738;2023-11-19T03:02:03;6.03;;;3.60;;
74293;SDS011;64044;59.904;10.738;2023-11-19T03:04:36;7.28;;;4.05;;
74293;SDS011;64044;59.904;10.738;2023-11-19T03:07:05;4.90;;;3.40;;
74293;SDS011;64044;59.904;10.738;2023-11-19T03:09:32;6.68;;;3.85;;
74293;SDS011;64044;59.904;10.738;2023-11-19T03:11:58;5.65;;;4.15;;
74293;SDS011;64044;59.904;10.738;2023-11-19T03:14:24;5.65;;;3.88;;
74293;SDS011;64044;59.904;10.738;2023-11-19T03:16:51;6.57;;;3.65;;
74293;SDS011;64044;59.904;10.738;2023-11-19T03:19:16;6.20;;;3.88;;
74293;SDS011;64044;59.904;10.738;2023-11-19T03:21:42;7.22;;;3.95;;
74293;SDS011;64044;59.904;10.738;2023-11-19T03:24:08;7.55;;;3.78;;
74293;SDS011;64044;59.904;10.738;2023-11-19T03:26:34;7.88;;;4.40;;
74293;SDS011;64044;59.904;10.738;2023-11-19T03:28:59;8.00;;;4.32;;
74293;SDS011;64044;59.904;10.738;2023-11-19T03:31:26;7.43;;;3.80;;
74293;SDS011;64044;59.904;10.738;2023-11-19T03:33:52;5.28;;;3.88;;
74293;SDS011;64044;59.904;10.738;2023-11-19T03:36:17;8.38;;;4.10;;
74293;SDS011;64044;59.904;10.738;2023-11-19T03:38:43;4.97;;;3.40;;
74293;SDS011;64044;59.904;10.738;2023-11-19T03:41:12;7.18;;;4.07;;
74293;SDS011;64044;59.904;10.738;2023-11-19T03:43:38;6.63;;;3.80;;
74293;SDS011;64044;59.904;10.738;2023-11-19T03:46:05;6.03;;;3.58;;
74293;SDS011;64044;59.904;10.738;2023-11-19T03:48:49;5.63;;;3.78;;
74293;SDS011;64044;59.904;10.738;2023-11-19T03:51:15;6.65;;;3.47;;
74293;SDS011;64044;59.904;10.738;2023-11-19T03:53:43;9.80;;;4.10;;
74293;SDS011;64044;59.904;10.738;2023-11-19T03:56:09;5.15;;;3.70;;
74293;SDS011;64044;59.904;10.738;2023-11-19T03:58:36;7.68;;;4.43;;
74293;SDS011;64044;59.904;10.738;2023-11-19T04:01:03;8.07;;;4.22;;
74293;SDS011;64044;59.904;10.738;2023-11-19T04:03:42;6.25;;;3.90;;
74293;SDS011;64044;59.904;10.738;2023-11-19T04:06:07;8.30;;;3.97;;
74293;SDS011;64044;59.904;10.738;2023-11-19T04:08:34;7.72;;;4.35;;
74293;SDS011;64044;59.904;10.738;2023-11-19T04:11:01;6.13;;;3.80;;
74293;SDS011;64044;59.904;10.738;2023-11-19T04:13:28;5.25;;;3.80;;
74293;SDS011;64044;59.904;10.738;2023-11-19T04:15:54;6.40;;;4.10;;
74293;SDS011;64044;59.904;10.738;2023-11-19T04:18:20;5.97;;;3.78;;
74293;SDS011;64044;59.904;10.738;2023-11-19T04:20:45;6.05;;;4.00;;
74293;SDS011;64044;59.904;10.738;2023-11-19T04:23:11;5.63;;;3.47;;
74293;SDS011;64044;59.904;10.738;2023-11-19T04:25:37;5.35;;;3.28;;
74293;SDS011;64044;59.904;10.738;2023-11-19T04:28:03;7.22;;;3.75;;
74293;SDS011;64044;59.904;10.738;2023-11-19T04:30:29;7.90;;;4.20;;
74293;SDS011;64044;59.904;10.738;2023-11-19T04:32:56;6.05;;;4.13;;
74293;SDS011;64044;59.904;10.738;2023-11-19T04:35:22;6.35;;;3.88;;
74293;SDS011;64044;59.904;10.738;2023-11-19T04:37:48;7.47;;;4.00;;
74293;SDS011;64044;59.904;10.738;2023-11-19T04:40:14;6.10;;;3.95;;
74293;SDS011;64044;59.904;10.738;2023-11-19T04:42:40;7.43;;;3.97;;
74293;SDS011;64044;59.904;10.738;2023-11-19T04:45:06;8.52;;;4.20;;
74293;SDS011;64044;59.904;10.738;2023-11-19T04:47:35;7.18;;;4.15;;
74293;SDS011;64044;59.904;10.738;2023-11-19T04:50:01;7.53;;;3.88;;
74293;SDS011;64044;59.904;10.738;2023-11-19T04:52:28;5.70;;;3.35;;
74293;SDS011;64044;59.904;10.738;2023-11-19T04:54:54;6.47;;;3.58;;
74293;SDS011;64044;59.904;10.738;2023-11-19T04:57:19;8.65;;;3.90;;
74293;SDS011;64044;59.904;10.738;2023-11-19T04:59:45;7.63;;;4.60;;
74293;SDS011;64044;59.904;10.738;2023-11-19T05:02:11;6.10;;;4.03;;
74293;SDS011;64044;59.904;10.738;2023-11-19T05:04:41;7.50;;;3.92;;
74293;SDS011;64044;59.904;10.738;2023-11-19T05:07:09;6.15;;;3.72;;
74293;SDS011;64044;59.904;10.738;2023-11-19T05:09:35;7.95;;;4.32;;
74293;SDS011;64044;59.904;10.738;2023-11-19T05:12:00;6.63;;;3.85;;
74293;SDS011;64044;59.904;10.738;2023-11-19T05:14:26;8.15;;;4.38;;
74293;SDS011;64044;59.904;10.738;2023-11-19T05:16:52;6.43;;;3.97;;
74293;SDS011;64044;59.904;10.738;2023-11-19T05:19:18;8.50;;;4.55;;
74293;SDS011;64044;59.904;10.738;2023-11-19T05:21:44;11.30;;;4.05;;
74293;SDS011;64044;59.904;10.738;2023-11-19T05:24:10;6.55;;;3.95;;
74293;SDS011;64044;59.904;10.738;2023-11-19T05:26:37;7.80;;;3.92;;
74293;SDS011;64044;59.904;10.738;2023-11-19T05:29:28;5.25;;;3.88;;
74293;SDS011;64044;59.904;10.738;2023-11-19T05:31:54;5.40;;;3.63;;
74293;SDS011;64044;59.904;10.738;2023-11-19T05:34:20;8.43;;;4.20;;
74293;SDS011;64044;59.904;10.738;2023-11-19T05:36:46;6.97;;;3.80;;
74293;SDS011;64044;59.904;10.738;2023-11-19T05:39:12;7.07;;;4.28;;
74293;SDS011;64044;59.904;10.738;2023-11-19T05:41:38;8.80;;;4.78;;
74293;SDS011;64044;59.904;10.738;2023-11-19T05:44:04;9.02;;;4.35;;
74293;SDS011;64044;59.904;10.738;2023-11-19T05:46:29;8.23;;;4.43;;
74293;SDS011;64044;59.904;10.738;2023-11-19T05:48:55;7.50;;;3.72;;
74293;SDS011;64044;59.904;10.738;2023-11-19T05:51:21;8.50;;;3.67;;
74293;SDS011;64044;59.904;10.738;2023-11-19T05:53:48;6.25;;;3.78;;
74293;SDS011;64044;59.904;10.738;2023-11-19T05:56:15;7.22;;;3.97;;
74293;SDS011;64044;59.904;10.738;2023-11-19T05:58:46;4.90;;;3.60;;
74293;SDS011;64044;59.904;10.738;2023-11-19T06:01:13;8.13;;;4.10;;
74293;SDS011;64044;59.904;10.738;2023-11-19T06:03:39;5.95;;;3.60;;
74293;SDS011;64044;59.904;10.738;2023-11-19T06:06:04;7.47;;;4.30;;
74293;SDS011;64044;59.904;10.738;2023-11-19T06:08:31;6.10;;;3.72;;
74293;SDS011;64044;59.904;10.738;2023-11-19T06:10:56;6.70;;;3.80;;
74293;SDS011;64044;59.904;10.738;2023-11-19T06:13:22;4.93;;;3.35;;
74293;SDS011;64044;59.904;10.738;2023-11-19T06:15:49;8.77;;;4.25;;
74293;SDS011;64044;59.904;10.738;2023-11-19T06:18:15;7.60;;;4.05;;
74293;SDS011;64044;59.904;10.738;2023-11-19T06:20:41;9.10;;;4.57;;
74293;SDS011;64044;59.904;10.738;2023-11-19T06:23:08;8.75;;;4.22;;
74293;SDS011;64044;59.904;10.738;2023-11-19T06:25:34;7.22;;;4.35;;
74293;SDS011;64044;59.904;10.738;2023-11-19T06:28:00;7.28;;;4.10;;
74293;SDS011;64044;59.904;10.738;2023-11-19T06:30:26;7.03;;;3.90;;
74293;SDS011;64044;59.904;10.738;2023-11-19T06:32:53;8.45;;;4.13;;
74293;SDS011;64044;59.904;10.738;2023-11-19T06:35:19;5.95;;;3.75;;
74293;SDS011;64044;59.904;10.738;2023-11-19T06:37:45;7.75;;;3.83;;
74293;SDS011;64044;59.904;10.738;2023-11-19T06:40:10;7.70;;;4.80;;
74293;SDS011;64044;59.904;10.738;2023-11-19T06:42:37;6.25;;;3.72;;
74293;SDS011;64044;59.904;10.738;2023-11-19T06:45:03;5.95;;;3.22;;
74293;SDS011;64044;59.904;10.738;2023-11-19T06:47:31;9.02;;;4.45;;
74293;SDS011;64044;59.904;10.738;2023-11-19T06:49:57;7.50;;;4.25;;
74293;SDS011;64044;59.904;10.738;2023-11-19T06:52:23;7.82;;;4.22;;
74293;SDS011;64044;59.904;10.738;2023-11-19T06:54:50;6.43;;;4.05;;
74293;SDS011;64044;59.904;10.738;2023-11-19T06:57:15;8.05;;;4.30;;
74293;SDS011;64044;59.904;10.738;2023-11-19T06:59:41;12.27;;;4.40;;
74293;SDS011;64044;59.904;10.738;2023-11-19T07:02:07;8.15;;;4.32;;
74293;SDS011;64044;59.904;10.738;2023-11-19T07:04:34;6.63;;;4.13;;
74293;SDS011;64044;59.904;10.738;2023-11-19T07:06:59;6.53;;;4.20;;
74293;SDS011;64044;59.904;10.738;2023-11-19T07:09:25;7.72;;;4.82;;
74293;SDS011;64044;59.904;10.738;2023-11-19T07:11:51;8.70;;;4.65;;
74293;SDS011;64044;59.904;10.738;2023-11-19T07:14:18;8.25;;;4.65;;
74293;SDS011;64044;59.904;10.738;2023-11-19T07:16:44;12.18;;;4.63;;
74293;SDS011;64044;59.904;10.738;2023-11-19T07:21:41;6.43;;;4.10;;
74293;SDS011;64044;59.904;10.738;2023-11-19T07:24:09;9.13;;;4.55;;
74293;SDS011;64044;59.904;10.738;2023-11-19T07:26:35;7.63;;;4.57;;
74293;SDS011;64044;59.904;10.738;2023-11-19T07:29:02;8.43;;;4.75;;
74293;SDS011;64044;59.904;10.738;2023-11-19T07:31:28;9.05;;;4.85;;
74293;SDS011;64044;59.904;10.738;2023-11-19T07:33:53;12.90;;;5.10;;
74293;SDS011;64044;59.904;10.738;2023-11-19T07:36:19;10.40;;;4.70;;
74293;SDS011;64044;59.904;10.738;2023-11-19T07:38:45;10.75;;;5.10;;
74293;SDS011;64044;59.904;10.738;2023-11-19T07:44:04;8.00;;;4.55;;
74293;SDS011;64044;59.904;10.738;2023-11-19T07:46:29;9.18;;;5.60;;
74293;SDS011;64044;59.904;10.738;2023-11-19T07:48:57;9.27;;;5.85;;
74293;SDS011;64044;59.904;10.738;2023-11-19T07:51:22;8.27;;;5.07;;
74293;SDS011;64044;59.904;10.738;2023-11-19T07:53:48;7.55;;;5.35;;
74293;SDS011;64044;59.904;10.738;2023-11-19T07:56:14;9.35;;;4.88;;
74293;SDS011;64044;59.904;10.738;2023-11-19T07:58:40;7.15;;;4.30;;
74293;SDS011;64044;59.904;10.738;2023-11-19T08:01:07;7.22;;;4.53;;
74293;SDS011;64044;59.904;10.738;2023-11-19T08:03:32;8.55;;;4.55;;
74293;SDS011;64044;59.904;10.738;2023-11-19T08:06:01;8.25;;;4.60;;
74293;SDS011;64044;59.904;10.738;2023-11-19T08:08:28;9.80;;;5.03;;
74293;SDS011;64044;59.904;10.738;2023-11-19T08:10:55;7.65;;;4.65;;
74293;SDS011;64044;59.904;10.738;2023-11-19T08:13:22;7.32;;;4.43;;
74293;SDS011;64044;59.904;10.738;2023-11-19T08:15:51;6.47;;;3.92;;
74293;SDS011;64044;59.904;10.738;2023-11-19T08:18:17;6.82;;;4.15;;
74293;SDS011;64044;59.904;10.738;2023-11-19T08:20:43;8.55;;;4.93;;
74293;SDS011;64044;59.904;10.738;2023-11-19T08:23:09;7.97;;;4.57;;
74293;SDS011;64044;59.904;10.738;2023-11-19T08:25:35;7.30;;;4.32;;
74293;SDS011;64044;59.904;10.738;2023-11-19T08:28:01;8.85;;;4.78;;
74293;SDS011;64044;59.904;10.738;2023-11-19T08:30:28;8.23;;;3.83;;
74293;SDS011;64044;59.904;10.738;2023-11-19T08:32:55;7.20;;;4.25;;
74293;SDS011;64044;59.904;10.738;2023-11-19T08:35:21;7.13;;;4.10;;
74293;SDS011;64044;59.904;10.738;2023-11-19T08:37:47;6.97;;;3.97;;
74293;SDS011;64044;59.904;10.738;2023-11-19T08:40:12;8.32;;;4.10;;
74293;SDS011;64044;59.904;10.738;2023-11-19T08:42:39;7.75;;;4.40;;
74293;SDS011;64044;59.904;10.738;2023-11-19T08:45:06;8.98;;;4.28;;
74293;SDS011;64044;59.904;10.738;2023-11-19T08:47:35;6.53;;;4.22;;
74293;SDS011;64044;59.904;10.738;2023-11-19T08:50:01;9.25;;;4.05;;
74293;SDS011;64044;59.904;10.738;2023-11-19T08:52:27;6.32;;;4.13;;
74293;SDS011;64044;59.904;10.738;2023-11-19T08:54:52;7.90;;;4.13;;
74293;SDS011;64044;59.904;10.738;2023-11-19T08:57:18;7.30;;;4.47;;
74293;SDS011;64044;59.904;10.738;2023-11-19T08:59:44;7.22;;;4.15;;
74293;SDS011;64044;59.904;10.738;2023-11-19T09:02:10;8.52;;;4.15;;
74293;SDS011;64044;59.904;10.738;2023-11-19T09:04:36;8.32;;;4.30;;
74293;SDS011;64044;59.904;10.738;2023-11-19T09:07:02;9.02;;;4.75;;
74293;SDS011;64044;59.904;10.738;2023-11-19T09:09:28;8.55;;;4.72;;
74293;SDS011;64044;59.904;10.738;2023-11-19T09:11:55;9.43;;;4.57;;
74293;SDS011;64044;59.904;10.738;2023-11-19T09:14:20;8.63;;;4.72;;
74293;SDS011;64044;59.904;10.738;2023-11-19T09:16:51;6.72;;;4.05;;
74293;SDS011;64044;59.904;10.738;2023-11-19T09:19:17;6.95;;;4.07;;
74293;SDS011;64044;59.904;10.738;2023-11-19T09:21:43;6.82;;;4.03;;
74293;SDS011;64044;59.904;10.738;2023-11-19T09:24:08;6.75;;;3.92;;
74293;SDS011;64044;59.904;10.738;2023-11-19T09:26:34;5.65;;;3.63;;
74293;SDS011;64044;59.904;10.738;2023-11-19T09:29:01;6.20;;;3.40;;
74293;SDS011;64044;59.904;10.738;2023-11-19T09:31:27;4.38;;;2.38;;
74293;SDS011;64044;59.904;10.738;2023-11-19T09:33:53;5.25;;;3.03;;
74293;SDS011;64044;59.904;10.738;2023-11-19T09:36:18;5.78;;;3.00;;
74293;SDS011;64044;59.904;10.738;2023-11-19T09:38:44;4.88;;;3.13;;
74293;SDS011;64044;59.904;10.738;2023-11-19T09:41:10;6.63;;;3.13;;
74293;SDS011;64044;59.904;10.738;2023-11-19T09:43:41;6.20;;;3.45;;
74293;SDS011;64044;59.904;10.738;2023-11-19T09:46:10;4.78;;;3.15;;
74293;SDS011;64044;59.904;10.738;2023-11-19T09:48:38;6.03;;;3.38;;
74293;SDS011;64044;59.904;10.738;2023-11-19T09:51:08;5.63;;;3.70;;
74293;SDS011;64044;59.904;10.738;2023-11-19T09:53:35;5.63;;;3.45;;
74293;SDS011;64044;59.904;10.738;2023-11-19T09:56:05;8.50;;;4.03;;
74293;SDS011;64044;59.904;10.738;2023-11-19T09:58:32;5.03;;;3.58;;
74293;SDS011;64044;59.904;10.738;2023-11-19T10:00:59;7.60;;;4.65;;
74293;SDS011;64044;59.904;10.738;2023-11-19T10:03:35;9.90;;;5.03;;
74293;SDS011;64044;59.904;10.738;2023-11-19T10:06:06;9.68;;;5.70;;
74293;SDS011;64044;59.904;10.738;2023-11-19T10:08:32;11.93;;;7.22;;
74293;SDS011;64044;59.904;10.738;2023-11-19T10:10:58;10.90;;;6.03;;
74293;SDS011;64044;59.904;10.738;2023-11-19T10:13:28;10.60;;;5.38;;
74293;SDS011;64044;59.904;10.738;2023-11-19T10:15:54;9.15;;;5.25;;
74293;SDS011;64044;59.904;10.738;2023-11-19T10:18:27;7.00;;;4.43;;
74293;SDS011;64044;59.904;10.738;2023-11-19T10:20:52;9.30;;;5.18;;
74293;SDS011;64044;59.904;10.738;2023-11-19T10:23:20;6.85;;;4.20;;
74293;SDS011;64044;59.904;10.738;2023-11-19T10:25:46;6.70;;;4.00;;
74293;SDS011;64044;59.904;10.738;2023-11-19T10:28:11;8.27;;;4.38;;
74293;SDS011;64044;59.904;10.738;2023-11-19T10:30:41;9.00;;;4.60;;
74293;SDS011;64044;59.904;10.738;2023-11-19T10:33:08;6.90;;;3.72;;
74293;SDS011;64044;59.904;10.738;2023-11-19T10:35:35;6.85;;;3.70;;
74293;SDS011;64044;59.904;10.738;2023-11-19T10:40:47;7.05;;;3.92;;
74293;SDS011;64044;59.904;10.738;2023-11-19T10:43:14;7.75;;;3.40;;
74293;SDS011;64044;59.904;10.738;2023-11-19T10:45:40;6.18;;;3.78;;
74293;SDS011;64044;59.904;10.738;2023-11-19T10:48:06;6.80;;;3.80;;
74293;SDS011;64044;59.904;10.738;2023-11-19T10:50:33;6.80;;;3.90;;
74293;SDS011;64044;59.904;10.738;2023-11-19T10:52:59;7.65;;;4.97;;
74293;SDS011;64044;59.904;10.738;2023-11-19T10:55:29;7.78;;;4.32;;
74293;SDS011;64044;59.904;10.738;2023-11-19T10:58:03;8.32;;;4.72;;
74293;SDS011;64044;59.904;10.738;2023-11-19T11:00:37;7.97;;;4.18;;
74293;SDS011;64044;59.904;10.738;2023-11-19T11:03:25;7.03;;;3.58;;
74293;SDS011;64044;59.904;10.738;2023-11-19T11:05:53;5.57;;;2.70;;
74293;SDS011;64044;59.904;10.738;2023-11-19T11:08:19;5.10;;;3.10;;
74293;SDS011;64044;59.904;10.738;2023-11-19T11:10:55;7.22;;;3.60;;
74293;SDS011;64044;59.904;10.738;2023-11-19T11:13:25;6.50;;;3.38;;
74293;SDS011;64044;59.904;10.738;2023-11-19T11:15:55;4.63;;;2.95;;
74293;SDS011;64044;59.904;10.738;2023-11-19T11:18:23;5.13;;;2.83;;
74293;SDS011;64044;59.904;10.738;2023-11-19T11:20:54;5.25;;;2.72;;
74293;SDS011;64044;59.904;10.738;2023-11-19T11:37:12;5.25;;;3.22;;
74293;SDS011;64044;59.904;10.738;2023-11-19T11:39:57;5.82;;;3.15;;
74293;SDS011;64044;59.904;10.738;2023-11-19T11:50:08;4.60;;;2.97;;
74293;SDS011;64044;59.904;10.738;2023-11-19T11:57:50;7.60;;;3.55;;
74293;SDS011;64044;59.904;10.738;2023-11-19T12:02:48;4.78;;;2.92;;
74293;SDS011;64044;59.904;10.738;2023-11-19T12:05:15;7.35;;;3.75;;
74293;SDS011;64044;59.904;10.738;2023-11-19T12:07:41;7.55;;;4.57;;
74293;SDS011;64044;59.904;10.738;2023-11-19T12:10:19;6.57;;;3.95;;
74293;SDS011;64044;59.904;10.738;2023-11-19T12:12:47;7.93;;;4.18;;
74293;SDS011;64044;59.904;10.738;2023-11-19T12:15:13;6.32;;;4.03;;
74293;SDS011;64044;59.904;10.738;2023-11-19T12:20:14;6.47;;;3.88;;
74293;SDS011;64044;59.904;10.738;2023-11-19T12:22:42;6.40;;;3.47;;
74293;SDS011;64044;59.904;10.738;2023-11-19T12:25:10;7.70;;;3.53;;
74293;SDS011;64044;59.904;10.738;2023-11-19T12:27:40;8.20;;;3.30;;
74293;SDS011;64044;59.904;10.738;2023-11-19T12:30:07;5.97;;;3.20;;
74293;SDS011;64044;59.904;10.738;2023-11-19T12:35:09;6.35;;;3.38;;
74293;SDS011;64044;59.904;10.738;2023-11-19T12:37:39;6.45;;;3.58;;
74293;SDS011;64044;59.904;10.738;2023-11-19T12:40:13;7.43;;;3.50;;
74293;SDS011;64044;59.904;10.738;2023-11-19T12:42:44;7.53;;;3.22;;
74293;SDS011;64044;59.904;10.738;2023-11-19T12:45:10;6.70;;;3.42;;
74293;SDS011;64044;59.904;10.738;2023-11-19T12:47:37;5.63;;;2.97;;
74293;SDS011;64044;59.904;10.738;2023-11-19T12:50:04;4.82;;;3.10;;
74293;SDS011;64044;59.904;10.738;2023-11-19T12:52:31;6.53;;;3.55;;
74293;SDS011;64044;59.904;10.738;2023-11-19T12:54:57;6.75;;;3.30;;
74293;SDS011;64044;59.904;10.738;2023-11-19T13:00:17;5.05;;;3.55;;
74293;SDS011;64044;59.904;10.738;2023-11-19T13:05:28;5.75;;;3.47;;
74293;SDS011;64044;59.904;10.738;2023-11-19T13:07:58;6.93;;;3.20;;
74293;SDS011;64044;59.904;10.738;2023-11-19T13:10:26;6.65;;;3.67;;
74293;SDS011;64044;59.904;10.738;2023-11-19T13:15:36;5.90;;;3.78;;
74293;SDS011;64044;59.904;10.738;2023-11-19T13:18:02;7.18;;;4.28;;
74293;SDS011;64044;59.904;10.738;2023-11-19T13:20:28;4.82;;;3.08;;
74293;SDS011;64044;59.904;10.738;2023-11-19T13:25:20;6.07;;;3.45;;
74293;SDS011;64044;59.904;10.738;2023-11-19T13:27:46;5.45;;;3.65;;
74293;SDS011;64044;59.904;10.738;2023-11-19T13:30:12;5.10;;;2.95;;
74293;SDS011;64044;59.904;10.738;2023-11-19T13:32:38;5.50;;;3.22;;
74293;SDS011;64044;59.904;10.738;2023-11-19T13:35:04;6.15;;;3.45;;
74293;SDS011;64044;59.904;10.738;2023-11-19T13:37:30;6.45;;;3.60;;
74293;SDS011;64044;59.904;10.738;2023-11-19T13:39:56;8.73;;;3.58;;
74293;SDS011;64044;59.904;10.738;2023-11-19T13:42:22;4.93;;;3.28;;
74293;SDS011;64044;59.904;10.738;2023-11-19T13:44:47;5.15;;;3.00;;
74293;SDS011;64044;59.904;10.738;2023-11-19T13:47:13;7.25;;;3.88;;
74293;SDS011;64044;59.904;10.738;2023-11-19T13:49:39;5.78;;;3.33;;
74293;SDS011;64044;59.904;10.738;2023-11-19T13:52:05;6.95;;;3.67;;
74293;SDS011;64044;59.904;10.738;2023-11-19T13:54:30;6.25;;;3.40;;
74293;SDS011;64044;59.904;10.738;2023-11-19T13:56:56;5.43;;;3.40;;
74293;SDS011;64044;59.904;10.738;2023-11-19T13:59:23;8.05;;;3.28;;
74293;SDS011;64044;59.904;10.738;2023-11-19T14:01:49;6.63;;;3.70;;
74293;SDS011;64044;59.904;10.738;2023-11-19T14:04:14;5.32;;;3.05;;
74293;SDS011;64044;59.904;10.738;2023-11-19T14:06:40;9.00;;;3.80;;
74293;SDS011;64044;59.904;10.738;2023-11-19T14:09:09;8.00;;;3.67;;
74293;SDS011;64044;59.904;10.738;2023-11-19T14:11:34;5.45;;;3.58;;
74293;SDS011;64044;59.904;10.738;2023-11-19T14:14:00;6.53;;;3.70;;
74293;SDS011;64044;59.904;10.738;2023-11-19T14:16:26;4.35;;;2.67;;
74293;SDS011;64044;59.904;10.738;2023-11-19T14:18:52;5.30;;;3.20;;
74293;SDS011;64044;59.904;10.738;2023-11-19T14:21:18;6.28;;;3.00;;
74293;SDS011;64044;59.904;10.738;2023-11-19T14:23:43;5.72;;;3.25;;
74293;SDS011;64044;59.904;10.738;2023-11-19T14:26:09;9.05;;;3.65;;
74293;SDS011;64044;59.904;10.738;2023-11-19T14:28:35;4.88;;;2.78;;
74293;SDS011;64044;59.904;10.738;2023-11-19T14:31:00;4.93;;;3.15;;
74293;SDS011;64044;59.904;10.738;2023-11-19T14:33:26;6.28;;;3.50;;
74293;SDS011;64044;59.904;10.738;2023-11-19T14:35:52;12.05;;;3.65;;
74293;SDS011;64044;59.904;10.738;2023-11-19T14:38:18;5.85;;;3.38;;
74293;SDS011;64044;59.904;10.738;2023-11-19T14:40:44;5.30;;;3.20;;
74293;SDS011;64044;59.904;10.738;2023-11-19T14:43:09;5.43;;;3.42;;
74293;SDS011;64044;59.904;10.738;2023-11-19T14:45:35;15.35;;;4.05;;
74293;SDS011;64044;59.904;10.738;2023-11-19T14:48:01;9.52;;;4.35;;
74293;SDS011;64044;59.904;10.738;2023-11-19T14:50:27;6.05;;;4.00;;
74293;SDS011;64044;59.904;10.738;2023-11-19T14:52:53;6.88;;;3.72;;
74293;SDS011;64044;59.904;10.738;2023-11-19T14:55:19;5.80;;;3.78;;
74293;SDS011;64044;59.904;10.738;2023-11-19T14:57:44;8.55;;;3.72;;
74293;SDS011;64044;59.904;10.738;2023-11-19T15:00:10;6.80;;;4.18;;
74293;SDS011;64044;59.904;10.738;2023-11-19T15:02:40;8.57;;;3.97;;
74293;SDS011;64044;59.904;10.738;2023-11-19T15:05:06;7.63;;;3.40;;
74293;SDS011;64044;59.904;10.738;2023-11-19T15:07:35;10.38;;;5.43;;
74293;SDS011;64044;59.904;10.738;2023-11-19T15:10:05;9.75;;;4.03;;
74293;SDS011;64044;59.904;10.738;2023-11-19T15:12:35;7.70;;;4.13;;
74293;SDS011;64044;59.904;10.738;2023-11-19T15:15:05;7.60;;;4.35;;
74293;SDS011;64044;59.904;10.738;2023-11-19T15:17:32;8.45;;;3.75;;
74293;SDS011;64044;59.904;10.738;2023-11-19T15:19:57;9.35;;;4.55;;
74293;SDS011;64044;59.904;10.738;2023-11-19T15:22:24;9.80;;;4.05;;
74293;SDS011;64044;59.904;10.738;2023-11-19T15:24:49;8.55;;;4.32;;
74293;SDS011;64044;59.904;10.738;2023-11-19T15:27:15;9.68;;;4.15;;